createdAt,value
2022-08-17T00:03:48.576Z,4149
2022-08-17T00:09:01.045Z,4149
2022-08-17T00:14:13.224Z,4147
2022-08-17T00:19:25.440Z,4168
2022-08-17T00:24:37.746Z,4171
2022-08-17T00:29:50.075Z,4140
2022-08-17T00:35:02.350Z,4188
2022-08-17T00:40:14.752Z,4181
2022-08-17T00:45:26.850Z,4129
2022-08-17T00:50:39.251Z,4181
2022-08-17T00:55:51.563Z,4121
2022-08-17T01:01:04.009Z,4123
2022-08-17T01:06:16.273Z,4179
2022-08-17T01:11:28.752Z,4160
2022-08-17T01:16:41.054Z,4132
2022-08-17T01:21:53.401Z,4153
2022-08-17T01:27:10.230Z,4162
2022-08-17T01:32:18.448Z,4151
2022-08-17T01:37:30.734Z,4153
2022-08-17T01:42:43.217Z,4106
2022-08-17T01:47:55.445Z,4145
2022-08-17T01:53:07.984Z,4171
2022-08-17T01:58:20.200Z,4090
2022-08-17T02:03:33.025Z,4114
2022-08-17T02:09:02.198Z,4134
2022-08-17T02:14:02.453Z,4095
2022-08-17T02:19:10.198Z,4171
2022-08-17T02:24:59.299Z,4155
2022-08-17T02:29:35.356Z,4134
2022-08-17T02:34:47.768Z,4149
2022-08-17T02:40:00.263Z,4166
2022-08-17T02:45:12.264Z,4105
2022-08-17T02:50:24.753Z,4168
2022-08-17T02:55:37.097Z,4190
2022-08-17T03:00:49.502Z,4075
2022-08-17T03:06:01.748Z,4162
2022-08-17T03:11:15.199Z,4170
2022-08-17T03:16:28.000Z,4188
2022-08-17T03:21:40.642Z,4188
2022-08-17T03:26:53.077Z,4173
2022-08-17T03:32:05.319Z,4153
2022-08-17T03:37:17.699Z,4151
2022-08-17T03:42:31.222Z,4151
2022-08-17T03:47:42.121Z,4168
2022-08-17T03:52:54.655Z,4151
2022-08-17T03:58:06.870Z,4160
2022-08-17T04:03:19.018Z,4160
2022-08-17T04:08:31.209Z,4183
2022-08-17T04:13:43.513Z,4144
2022-08-17T04:18:55.584Z,4177
2022-08-17T04:24:07.898Z,4153
2022-08-17T04:29:20.333Z,4132
2022-08-17T04:34:32.612Z,4153
2022-08-17T04:39:45.138Z,4177
2022-08-17T04:44:57.410Z,4155
2022-08-17T04:50:09.840Z,4170
2022-08-17T04:55:22.266Z,4175
2022-08-17T05:00:34.578Z,4110
2022-08-17T05:05:46.758Z,4175
2022-08-17T05:10:59.205Z,4173
2022-08-17T05:16:11.413Z,4147
2022-08-17T05:21:24.167Z,4116
2022-08-17T05:26:36.437Z,4129
2022-08-17T05:31:48.949Z,4112
2022-08-17T05:37:01.236Z,4171
2022-08-17T05:42:13.570Z,4101
2022-08-17T05:47:25.784Z,4171
2022-08-17T05:52:38.323Z,4145
2022-08-17T05:57:53.447Z,4168
2022-08-17T06:03:03.077Z,4168
2022-08-17T06:08:15.411Z,4116
2022-08-17T06:13:27.628Z,4140
2022-08-17T06:18:39.943Z,4097
2022-08-17T06:23:52.340Z,4166
2022-08-17T06:29:04.639Z,4168
2022-08-17T06:34:17.095Z,4121
2022-08-17T06:39:29.700Z,4112
2022-08-17T06:44:50.069Z,4131
2022-08-17T06:49:55.516Z,4168
2022-08-17T06:55:06.681Z,4127
2022-08-17T07:00:19.005Z,4168
2022-08-17T07:05:31.349Z,4168
2022-08-17T07:10:43.794Z,4080
2022-08-17T07:15:57.137Z,4170
2022-08-17T07:21:08.488Z,4103
2022-08-17T07:26:20.778Z,4142
2022-08-17T07:31:33.173Z,4153
2022-08-17T07:36:45.469Z,4149
2022-08-17T07:41:59.338Z,4153
2022-08-17T07:47:10.532Z,4151
2022-08-17T07:52:24.417Z,4132
2022-08-17T07:57:35.339Z,4095
2022-08-17T08:02:47.733Z,4151
2022-08-17T08:07:59.969Z,4052
2022-08-17T08:13:12.226Z,4171
2022-08-17T08:18:39.687Z,4132
2022-08-17T08:23:36.855Z,4171
2022-08-17T08:28:49.066Z,4058
2022-08-17T08:34:01.496Z,3976
2022-08-17T08:39:14.004Z,4017
2022-08-17T08:44:59.263Z,4090
2022-08-17T08:50:02.443Z,4123
2022-08-17T08:54:51.190Z,4112
2022-08-17T09:00:03.691Z,4073
2022-08-17T09:05:16.254Z,4138
2022-08-17T09:10:28.475Z,4067
2022-08-17T09:15:40.786Z,4043
2022-08-17T09:20:53.180Z,4157
2022-08-17T09:26:05.534Z,4106
2022-08-17T09:36:30.743Z,4132
2022-08-17T09:41:48.609Z,4175
2022-08-17T09:46:55.854Z,4157
2022-08-17T09:52:08.370Z,4151
2022-08-17T09:57:35.565Z,4175
2022-08-17T10:02:33.302Z,4157
2022-08-17T10:07:45.686Z,4214
2022-08-17T10:12:58.153Z,4140
2022-08-17T10:18:10.628Z,4199
2022-08-17T10:23:23.207Z,4209
2022-08-17T10:28:35.568Z,4173
2022-08-17T10:33:47.866Z,4125
2022-08-17T10:39:00.684Z,4188
2022-08-17T10:44:37.859Z,4203
2022-08-17T10:49:25.406Z,4198
2022-08-17T10:54:38.018Z,4186
2022-08-17T10:59:50.314Z,4227
2022-08-17T11:05:02.679Z,4229
2022-08-17T11:10:15.187Z,4238
2022-08-17T11:15:27.678Z,4207
2022-08-17T11:20:40.417Z,4231
2022-08-17T11:25:52.971Z,4279
2022-08-17T11:31:05.258Z,4147
2022-08-17T11:36:17.698Z,4264
2022-08-17T11:41:30.042Z,4272
2022-08-17T11:46:42.574Z,4255
2022-08-17T11:51:54.911Z,4291
2022-08-17T11:57:07.111Z,4298
2022-08-17T12:02:19.641Z,4255
2022-08-17T12:07:32.041Z,4248
2022-08-17T12:12:44.372Z,4257
2022-08-17T12:17:57.078Z,4266
2022-08-17T12:23:09.220Z,4304
2022-08-17T12:28:21.830Z,4279
2022-08-17T12:33:33.895Z,4287
2022-08-17T12:38:46.057Z,4287
2022-08-17T12:43:59.012Z,4255
2022-08-17T12:49:11.190Z,4281
2022-08-17T12:54:23.565Z,4250
2022-08-17T12:59:36.188Z,4268
2022-08-17T13:04:48.509Z,4274
2022-08-17T13:10:01.246Z,4278
2022-08-17T13:15:13.681Z,4274
2022-08-17T13:20:26.244Z,4283
2022-08-17T13:25:39.453Z,4238
2022-08-17T13:30:51.923Z,4272
2022-08-17T13:36:04.182Z,4272
2022-08-17T13:41:16.422Z,4255
2022-08-17T13:46:28.649Z,4283
2022-08-17T13:51:40.961Z,4279
2022-08-17T13:56:53.192Z,4272
2022-08-17T14:02:05.575Z,4281
2022-08-17T14:07:17.852Z,4294
2022-08-17T14:12:30.187Z,4259
2022-08-17T14:17:42.379Z,4242
2022-08-17T14:22:54.622Z,4291
2022-08-17T14:28:06.849Z,4248
2022-08-17T14:33:19.365Z,4291
2022-08-17T14:38:31.567Z,4211
2022-08-17T14:43:43.918Z,4291
2022-08-17T14:48:57.446Z,4279
2022-08-17T14:54:08.771Z,4270
2022-08-17T14:59:20.988Z,4266
2022-08-17T15:04:33.309Z,4289
2022-08-17T15:09:45.624Z,4237
2022-08-17T15:14:57.913Z,4289
2022-08-17T15:20:14.192Z,4278
2022-08-17T15:25:22.369Z,4246
2022-08-17T15:30:34.831Z,4255
2022-08-17T15:35:47.290Z,4240
2022-08-17T15:40:59.716Z,4212
2022-08-17T15:46:11.803Z,4289
2022-08-17T15:51:24.165Z,4263
2022-08-17T15:56:36.689Z,4255
2022-08-17T16:03:01.972Z,4281
2022-08-17T16:07:01.250Z,4261
2022-08-17T16:12:13.100Z,4274
2022-08-17T16:17:38.440Z,4268
2022-08-17T16:22:38.971Z,4248
2022-08-17T16:27:51.302Z,4257
2022-08-17T16:33:03.649Z,4281
2022-08-17T16:38:15.966Z,4270
2022-08-17T16:43:28.208Z,4251
2022-08-17T16:48:40.497Z,4283
2022-08-17T16:53:54.201Z,4257
2022-08-17T16:59:07.292Z,4261
2022-08-17T17:04:17.465Z,4272
2022-08-17T17:09:29.674Z,4231
2022-08-17T17:14:42.093Z,4248
2022-08-17T17:19:54.589Z,4244
2022-08-17T17:25:06.815Z,4248
2022-08-17T17:30:19.271Z,4216
2022-08-17T17:35:31.600Z,4261
2022-08-17T17:40:43.729Z,4246
2022-08-17T17:45:55.850Z,4237
2022-08-17T17:51:08.258Z,4268
2022-08-17T17:56:40.286Z,4235
2022-08-17T18:01:32.736Z,4242
2022-08-17T18:06:44.921Z,4255
2022-08-17T18:11:58.200Z,4233
2022-08-17T18:17:09.149Z,4276
2022-08-17T18:22:21.461Z,4259
2022-08-17T18:27:33.568Z,4244
2022-08-17T18:32:45.807Z,4203
2022-08-17T18:37:58.137Z,4268
2022-08-17T18:43:10.499Z,4270
2022-08-17T18:48:22.855Z,4251
2022-08-17T18:53:35.101Z,4263
2022-08-17T18:58:47.445Z,4214
2022-08-17T19:03:59.868Z,4211
2022-08-17T19:09:11.966Z,4214
2022-08-17T19:14:24.371Z,4250
2022-08-17T19:19:36.696Z,4246
2022-08-17T19:24:50.166Z,4233
2022-08-17T19:30:07.086Z,4244
2022-08-17T19:35:17.464Z,4253
2022-08-17T19:40:50.916Z,4248
2022-08-17T19:45:38.689Z,4257
2022-08-17T19:50:50.973Z,4190
2022-08-17T19:56:03.284Z,4257
2022-08-17T20:01:15.718Z,4255
2022-08-17T20:06:27.866Z,4238
2022-08-17T20:11:40.086Z,4255
2022-08-17T20:16:52.267Z,4233
2022-08-17T20:22:04.610Z,4255
2022-08-17T20:27:16.982Z,4238
2022-08-17T20:32:29.166Z,4253
2022-08-17T20:37:41.396Z,4240
2022-08-17T20:42:53.732Z,4211
2022-08-17T20:48:30.783Z,4253
2022-08-17T20:53:17.235Z,4238
2022-08-17T20:58:29.795Z,4106
2022-08-17T21:03:50.757Z,4220
2022-08-17T21:14:06.556Z,4194
2022-08-17T21:19:19.024Z,4199
2022-08-17T21:24:31.160Z,4220
2022-08-17T21:29:43.686Z,4181
2022-08-17T21:34:56.003Z,4235
2022-08-17T21:40:08.396Z,4233
2022-08-17T21:45:20.632Z,4170
2022-08-17T21:50:32.981Z,4194
2022-08-17T21:55:46.132Z,4209
2022-08-17T22:00:58.931Z,4231
2022-08-17T22:06:11.172Z,4170
2022-08-17T22:11:23.600Z,4155
2022-08-17T22:16:36.039Z,4140
2022-08-17T22:21:48.355Z,4162
2022-08-17T22:27:00.733Z,4199
2022-08-17T22:32:13.020Z,4170
2022-08-17T22:37:27.530Z,4183
2022-08-17T22:42:38.070Z,4131
2022-08-17T22:47:50.561Z,4179
2022-08-17T22:53:02.746Z,4196
2022-08-17T22:58:14.980Z,4218
2022-08-17T23:03:27.013Z,4118
2022-08-17T23:08:39.199Z,4155
2022-08-17T23:13:51.385Z,4157
2022-08-17T23:19:03.702Z,4138
2022-08-17T23:24:16.041Z,4196
2022-08-17T23:29:28.468Z,4153
2022-08-17T23:34:40.960Z,4173
2022-08-17T23:39:53.862Z,4179
2022-08-17T23:45:06.301Z,4155
2022-08-17T23:50:19.009Z,4168
2022-08-17T23:55:31.328Z,4171
